Pagina principale
METAR-TAF:

METAR-TAF

Aeroporti :

Aeroporto di Southampton

Southampton, Inghilterra

latitudine: 50-54N, longitudine: 001-24W, altezza: 9 m

Osservazione

Il bollettino è stato emesso 42 minuti fa, alle 15:50 UTC
Vento 8 kt da sud-est, variando fra est e sud
Temperature 23°C
Umidità 38%
Pressione 1021 hPa
Visibilità 10 km o più
nessuna nube inferiore a 1500 m e nessun cumulonembo

METAR: EGHI 311550Z 13008KT 080V180 CAVOK 23/08 Q1021

Ora: 17:32 (16:32 UTC)

Previsione

Il bollettino è stato emesso 2 ore e 38 minuti fa, alle 13:54 UTC
Previsione valida dal 31 alle 15 UTC al 31 alle 19 UTC
Vento 6 kt da sud-est
Visibilità 10 km o più
nessuna nube inferiore a 1500 m e nessun cumulonembo

TAF: EGHI 311354Z 3115/3119 13006KT CAVOK

Osservazioni e previsioni meteorologiche di più di 4000 aeroporti (messaggi METAR e TAF).

Le stazioni disponibili sono rappresentate dai dischi gialli e rossi sulla carta.

Puntare il mouse per vedere il nome della stazione.

Clicca sopra per visualizzare le osservazioni e previsioni meteorologiche.

Per cambiare la mappa : fare clic sui pulsanti verdi con una croce nera per ingrandire, il pulsante verde con un trattino per diminuire, o sulla freccia verde per le mappe adiacenti.


METAR-TAF: